sensor_id;sensor_type;location;lat;lon;timestamp;pressure;altitude;pressure_sealevel;temperature;humidity
21594;BME280;10959;51.328;7.322;2022-10-23T00:02:06;98683.88;;;15.56;82.63
21594;BME280;10959;51.328;7.322;2022-10-23T00:04:33;98685.97;;;15.52;82.65
21594;BME280;10959;51.328;7.322;2022-10-23T00:06:59;98686.94;;;15.51;82.64
21594;BME280;10959;51.328;7.322;2022-10-23T00:09:26;98689.78;;;15.50;82.50
21594;BME280;10959;51.328;7.322;2022-10-23T00:11:53;98694.22;;;15.51;82.42
21594;BME280;10959;51.328;7.322;2022-10-23T00:14:22;98689.78;;;15.50;82.04
21594;BME280;10959;51.328;7.322;2022-10-23T00:16:49;98681.97;;;15.45;82.21
21594;BME280;10959;51.328;7.322;2022-10-23T00:19:16;98681.13;;;15.45;82.13
21594;BME280;10959;51.328;7.322;2022-10-23T00:21:42;98684.03;;;15.42;82.45
21594;BME280;10959;51.328;7.322;2022-10-23T00:24:09;98683.06;;;15.43;82.27
21594;BME280;10959;51.328;7.322;2022-10-23T00:26:35;98688.47;;;15.43;82.20
21594;BME280;10959;51.328;7.322;2022-10-23T00:29:06;98686.84;;;15.40;82.16
21594;BME280;10959;51.328;7.322;2022-10-23T00:31:33;98693.91;;;15.43;82.59
21594;BME280;10959;51.328;7.322;2022-10-23T00:33:59;98701.31;;;15.41;82.46
21594;BME280;10959;51.328;7.322;2022-10-23T00:36:26;98698.69;;;15.39;82.46
21594;BME280;10959;51.328;7.322;2022-10-23T00:38:53;98696.94;;;15.38;82.49
21594;BME280;10959;51.328;7.322;2022-10-23T00:41:22;98696.28;;;15.34;82.31
21594;BME280;10959;51.328;7.322;2022-10-23T00:44:02;98692.63;;;15.23;82.30
21594;BME280;10959;51.328;7.322;2022-10-23T00:46:31;98696.28;;;15.34;82.02
21594;BME280;10959;51.328;7.322;2022-10-23T00:48:58;98699.78;;;15.36;81.90
21594;BME280;10959;51.328;7.322;2022-10-23T00:51:28;98692.16;;;15.29;81.83
21594;BME280;10959;51.328;7.322;2022-10-23T00:53:57;98696.50;;;15.31;81.77
21594;BME280;10959;51.328;7.322;2022-10-23T00:56:24;98693.28;;;15.26;82.04
21594;BME280;10959;51.328;7.322;2022-10-23T00:58:51;98693.28;;;15.26;81.84
21594;BME280;10959;51.328;7.322;2022-10-23T01:01:20;98697.19;;;15.22;81.73
21594;BME280;10959;51.328;7.322;2022-10-23T01:03:49;98702.06;;;15.17;82.20
21594;BME280;10959;51.328;7.322;2022-10-23T01:06:25;98693.56;;;15.09;82.01
21594;BME280;10959;51.328;7.322;2022-10-23T01:09:02;98699.78;;;15.11;82.61
21594;BME280;10959;51.328;7.322;2022-10-23T01:11:39;98691.31;;;15.15;82.88
21594;BME280;10959;51.328;7.322;2022-10-23T01:14:16;98688.72;;;15.14;82.68
21594;BME280;10959;51.328;7.322;2022-10-23T01:16:52;98683.06;;;15.17;82.36
21594;BME280;10959;51.328;7.322;2022-10-23T01:19:33;98690.22;;;15.18;82.24
21594;BME280;10959;51.328;7.322;2022-10-23T01:22:11;98680.47;;;15.15;82.55
21594;BME280;10959;51.328;7.322;2022-10-23T01:24:47;98674.81;;;15.18;82.77
21594;BME280;10959;51.328;7.322;2022-10-23T01:27:24;98682.31;;;15.15;82.72
21594;BME280;10959;51.328;7.322;2022-10-23T01:30:00;98681.31;;;15.16;82.55
21594;BME280;10959;51.328;7.322;2022-10-23T01:32:33;98682.84;;;15.20;82.66
21594;BME280;10959;51.328;7.322;2022-10-23T01:35:03;98682.53;;;15.25;82.50
21594;BME280;10959;51.328;7.322;2022-10-23T01:37:34;98676.44;;;15.21;82.25
21594;BME280;10959;51.328;7.322;2022-10-23T01:40:05;98680.03;;;15.21;82.31
21594;BME280;10959;51.328;7.322;2022-10-23T01:42:38;98678.72;;;15.14;82.39
21594;BME280;10959;51.328;7.322;2022-10-23T01:45:09;98675.03;;;15.15;82.31
21594;BME280;10959;51.328;7.322;2022-10-23T01:47:39;98672.22;;;15.17;82.36
21594;BME280;10959;51.328;7.322;2022-10-23T01:50:08;98667.75;;;15.16;82.28
21594;BME280;10959;51.328;7.322;2022-10-23T01:52:36;98665.25;;;15.13;82.49
21594;BME280;10959;51.328;7.322;2022-10-23T01:55:04;98665.03;;;15.16;82.17
21594;BME280;10959;51.328;7.322;2022-10-23T01:57:35;98658.09;;;15.12;82.74
21594;BME280;10959;51.328;7.322;2022-10-23T02:00:06;98644.53;;;15.12;83.22
21594;BME280;10959;51.328;7.322;2022-10-23T02:02:35;98635.09;;;15.17;83.00
21594;BME280;10959;51.328;7.322;2022-10-23T02:05:06;98633.38;;;15.16;82.54
21594;BME280;10959;51.328;7.322;2022-10-23T02:07:34;98641.41;;;15.18;82.61
21594;BME280;10959;51.328;7.322;2022-10-23T02:10:02;98635.97;;;15.18;82.26
21594;BME280;10959;51.328;7.322;2022-10-23T02:12:37;98623.84;;;15.11;82.54
21594;BME280;10959;51.328;7.322;2022-10-23T02:15:10;98619.72;;;15.18;82.93
21594;BME280;10959;51.328;7.322;2022-10-23T02:17:43;98617.97;;;15.17;83.25
21594;BME280;10959;51.328;7.322;2022-10-23T02:20:18;98617.84;;;15.18;83.48
21594;BME280;10959;51.328;7.322;2022-10-23T02:22:52;98607.66;;;15.22;83.51
21594;BME280;10959;51.328;7.322;2022-10-23T02:25:23;98611.91;;;15.26;83.11
21594;BME280;10959;51.328;7.322;2022-10-23T02:27:55;98608.41;;;15.24;83.22
21594;BME280;10959;51.328;7.322;2022-10-23T02:30:23;98600.03;;;15.27;83.52
21594;BME280;10959;51.328;7.322;2022-10-23T02:32:52;98609.94;;;15.28;82.96
21594;BME280;10959;51.328;7.322;2022-10-23T02:35:21;98600.94;;;15.28;83.48
21594;BME280;10959;51.328;7.322;2022-10-23T02:37:52;98594.84;;;15.24;83.29
21594;BME280;10959;51.328;7.322;2022-10-23T02:40:19;98598.84;;;15.31;83.38
21594;BME280;10959;51.328;7.322;2022-10-23T02:42:51;98590.38;;;15.23;83.33
21594;BME280;10959;51.328;7.322;2022-10-23T02:45:26;98584.97;;;15.23;83.14
21594;BME280;10959;51.328;7.322;2022-10-23T02:47:59;98584.78;;;15.26;83.41
21594;BME280;10959;51.328;7.322;2022-10-23T02:50:32;98580.31;;;15.25;83.18
21594;BME280;10959;51.328;7.322;2022-10-23T02:53:05;98577.38;;;15.28;83.58
21594;BME280;10959;51.328;7.322;2022-10-23T02:55:43;98574.13;;;15.23;83.61
21594;BME280;10959;51.328;7.322;2022-10-23T02:58:18;98572.19;;;15.25;83.75
21594;BME280;10959;51.328;7.322;2022-10-23T03:00:49;98580.81;;;15.30;84.01
21594;BME280;10959;51.328;7.322;2022-10-23T03:03:20;98571.50;;;15.34;83.89
21594;BME280;10959;51.328;7.322;2022-10-23T03:05:48;98569.56;;;15.36;84.26
21594;BME280;10959;51.328;7.322;2022-10-23T03:08:15;98570.06;;;15.42;83.65
21594;BME280;10959;51.328;7.322;2022-10-23T03:10:42;98564.88;;;15.38;83.48
21594;BME280;10959;51.328;7.322;2022-10-23T03:13:08;98559.78;;;15.34;83.30
21594;BME280;10959;51.328;7.322;2022-10-23T03:15:35;98560.63;;;15.34;83.31
21594;BME280;10959;51.328;7.322;2022-10-23T03:18:03;98557.19;;;15.32;83.09
21594;BME280;10959;51.328;7.322;2022-10-23T03:20:29;98557.19;;;15.32;83.38
21594;BME280;10959;51.328;7.322;2022-10-23T03:22:56;98555.44;;;15.31;83.19
21594;BME280;10959;51.328;7.322;2022-10-23T03:25:22;98552.00;;;15.29;83.15
21594;BME280;10959;51.328;7.322;2022-10-23T03:27:48;98545.06;;;15.25;83.24
21594;BME280;10959;51.328;7.322;2022-10-23T03:30:15;98539.63;;;15.25;83.21
21594;BME280;10959;51.328;7.322;2022-10-23T03:32:41;98539.84;;;15.22;83.48
21594;BME280;10959;51.328;7.322;2022-10-23T03:35:09;98529.63;;;15.26;83.36
21594;BME280;10959;51.328;7.322;2022-10-23T03:37:36;98530.53;;;15.26;83.54
21594;BME280;10959;51.328;7.322;2022-10-23T03:40:03;98529.75;;;15.24;83.59
21594;BME280;10959;51.328;7.322;2022-10-23T03:42:29;98529.84;;;15.23;83.48
21594;BME280;10959;51.328;7.322;2022-10-23T03:44:56;98521.84;;;15.21;83.35
21594;BME280;10959;51.328;7.322;2022-10-23T03:47:22;98520.09;;;15.20;84.40
21594;BME280;10959;51.328;7.322;2022-10-23T03:49:49;98515.22;;;15.25;84.12
21594;BME280;10959;51.328;7.322;2022-10-23T03:52:17;98502.28;;;15.29;84.01
21594;BME280;10959;51.328;7.322;2022-10-23T03:54:43;98510.09;;;15.33;83.94
21594;BME280;10959;51.328;7.322;2022-10-23T03:57:10;98502.16;;;15.30;84.03
21594;BME280;10959;51.328;7.322;2022-10-23T03:59:36;98503.91;;;15.31;84.10
21594;BME280;10959;51.328;7.322;2022-10-23T04:02:03;98496.66;;;15.32;83.90
21594;BME280;10959;51.328;7.322;2022-10-23T04:04:29;98502.94;;;15.32;83.89
21594;BME280;10959;51.328;7.322;2022-10-23T04:06:55;98502.06;;;15.32;83.95
21594;BME280;10959;51.328;7.322;2022-10-23T04:09:23;98509.09;;;15.34;84.25
21594;BME280;10959;51.328;7.322;2022-10-23T04:11:50;98501.84;;;15.35;84.07
21594;BME280;10959;51.328;7.322;2022-10-23T04:14:16;98500.94;;;15.34;84.33
21594;BME280;10959;51.328;7.322;2022-10-23T04:16:43;98489.91;;;15.37;84.45
21594;BME280;10959;51.328;7.322;2022-10-23T04:19:09;98495.09;;;15.41;84.54
21594;BME280;10959;51.328;7.322;2022-10-23T04:21:35;98501.38;;;15.41;84.22
21594;BME280;10959;51.328;7.322;2022-10-23T04:24:02;98499.63;;;15.40;84.71
21594;BME280;10959;51.328;7.322;2022-10-23T04:26:30;98503.97;;;15.43;84.05
21594;BME280;10959;51.328;7.322;2022-10-23T04:28:56;98505.72;;;15.44;84.26
21594;BME280;10959;51.328;7.322;2022-10-23T04:31:23;98499.06;;;15.48;84.14
21594;BME280;10959;51.328;7.322;2022-10-23T04:33:49;98499.50;;;15.42;84.44
21594;BME280;10959;51.328;7.322;2022-10-23T04:36:16;98491.16;;;15.45;84.44
21594;BME280;10959;51.328;7.322;2022-10-23T04:38:42;98493.66;;;15.48;84.50
21594;BME280;10959;51.328;7.322;2022-10-23T04:41:09;98492.44;;;15.52;84.40
21594;BME280;10959;51.328;7.322;2022-10-23T04:43:36;98489.72;;;15.52;84.15
21594;BME280;10959;51.328;7.322;2022-10-23T04:46:03;98483.28;;;15.53;84.08
21594;BME280;10959;51.328;7.322;2022-10-23T04:48:30;98485.03;;;15.54;84.26
21594;BME280;10959;51.328;7.322;2022-10-23T04:50:58;98486.78;;;15.55;83.95
21594;BME280;10959;51.328;7.322;2022-10-23T04:53:25;98489.63;;;15.53;84.00
21594;BME280;10959;51.328;7.322;2022-10-23T04:55:54;98483.28;;;15.53;84.16
21594;BME280;10959;51.328;7.322;2022-10-23T04:58:21;98486.78;;;15.55;83.92
21594;BME280;10959;51.328;7.322;2022-10-23T05:00:50;98484.31;;;15.52;84.03
21594;BME280;10959;51.328;7.322;2022-10-23T05:03:17;98478.88;;;15.52;84.21
21594;BME280;10959;51.328;7.322;2022-10-23T05:05:44;98469.84;;;15.51;84.23
21594;BME280;10959;51.328;7.322;2022-10-23T05:08:11;98477.88;;;15.53;84.21
21594;BME280;10959;51.328;7.322;2022-10-23T05:10:38;98469.84;;;15.51;84.48
21594;BME280;10959;51.328;7.322;2022-10-23T05:13:06;98469.00;;;15.51;84.71
21594;BME280;10959;51.328;7.322;2022-10-23T05:15:32;98474.19;;;15.54;84.60
21594;BME280;10959;51.328;7.322;2022-10-23T05:18:04;98472.44;;;15.53;84.29
21594;BME280;10959;51.328;7.322;2022-10-23T05:20:35;98470.13;;;15.60;84.22
21594;BME280;10959;51.328;7.322;2022-10-23T05:23:05;98459.63;;;15.55;83.89
21594;BME280;10959;51.328;7.322;2022-10-23T05:25:34;98462.84;;;15.60;84.01
21594;BME280;10959;51.328;7.322;2022-10-23T05:28:00;98469.41;;;15.58;84.04
21594;BME280;10959;51.328;7.322;2022-10-23T05:30:27;98470.03;;;15.61;84.10
21594;BME280;10959;51.328;7.322;2022-10-23T05:32:54;98464.59;;;15.61;84.18
21594;BME280;10959;51.328;7.322;2022-10-23T05:35:22;98466.34;;;15.62;84.02
21594;BME280;10959;51.328;7.322;2022-10-23T05:37:50;98462.66;;;15.63;84.18
21594;BME280;10959;51.328;7.322;2022-10-23T05:40:18;98458.94;;;15.64;84.17
21594;BME280;10959;51.328;7.322;2022-10-23T05:42:45;98460.66;;;15.65;84.42
21594;BME280;10959;51.328;7.322;2022-10-23T05:45:12;98458.69;;;15.67;84.10
21594;BME280;10959;51.328;7.322;2022-10-23T05:47:38;98452.16;;;15.70;84.23
21594;BME280;10959;51.328;7.322;2022-10-23T05:50:05;98450.34;;;15.70;84.20
21594;BME280;10959;51.328;7.322;2022-10-23T05:52:33;98458.25;;;15.73;84.01
21594;BME280;10959;51.328;7.322;2022-10-23T05:54:59;98458.25;;;15.73;83.88
21594;BME280;10959;51.328;7.322;2022-10-23T05:57:26;98452.03;;;15.71;84.20
21594;BME280;10959;51.328;7.322;2022-10-23T05:59:52;98441.06;;;15.73;84.17
21594;BME280;10959;51.328;7.322;2022-10-23T06:02:18;98427.38;;;15.75;84.05
21594;BME280;10959;51.328;7.322;2022-10-23T06:04:45;98435.44;;;15.76;83.68
21594;BME280;10959;51.328;7.322;2022-10-23T06:07:11;98432.81;;;15.75;83.86
21594;BME280;10959;51.328;7.322;2022-10-23T06:09:39;98426.53;;;15.74;83.72
21594;BME280;10959;51.328;7.322;2022-10-23T06:12:06;98429.09;;;15.76;83.67
21594;BME280;10959;51.328;7.322;2022-10-23T06:14:32;98424.78;;;15.73;83.79
21594;BME280;10959;51.328;7.322;2022-10-23T06:16:58;98421.94;;;15.75;83.84
21594;BME280;10959;51.328;7.322;2022-10-23T06:19:25;98424.66;;;15.75;83.48
21594;BME280;10959;51.328;7.322;2022-10-23T06:21:51;98427.16;;;15.78;83.69
21594;BME280;10959;51.328;7.322;2022-10-23T06:24:18;98423.25;;;15.82;83.12
21594;BME280;10959;51.328;7.322;2022-10-23T06:26:45;98413.38;;;15.81;82.96
21594;BME280;10959;51.328;7.322;2022-10-23T06:29:12;98412.41;;;15.82;83.01
21594;BME280;10959;51.328;7.322;2022-10-23T06:31:38;98406.97;;;15.82;83.19
21594;BME280;10959;51.328;7.322;2022-10-23T06:34:05;98409.44;;;15.85;82.75
21594;BME280;10959;51.328;7.322;2022-10-23T06:36:31;98417.84;;;15.82;82.73
21594;BME280;10959;51.328;7.322;2022-10-23T06:38:58;98408.44;;;15.86;82.75
21594;BME280;10959;51.328;7.322;2022-10-23T06:41:24;98406.25;;;15.91;82.43
21594;BME280;10959;51.328;7.322;2022-10-23T06:43:52;98412.66;;;15.90;82.31
21594;BME280;10959;51.328;7.322;2022-10-23T06:46:19;98408.69;;;15.83;82.60
21594;BME280;10959;51.328;7.322;2022-10-23T06:48:46;98406.47;;;15.88;82.47
21594;BME280;10959;51.328;7.322;2022-10-23T06:51:14;98415.38;;;15.90;82.23
21594;BME280;10959;51.328;7.322;2022-10-23T06:53:40;98416.13;;;15.92;82.08
21594;BME280;10959;51.328;7.322;2022-10-23T06:56:08;98411.94;;;15.99;81.97
21594;BME280;10959;51.328;7.322;2022-10-23T06:58:36;98406.16;;;16.04;81.67
21594;BME280;10959;51.328;7.322;2022-10-23T07:01:06;98414.16;;;16.05;81.67
21594;BME280;10959;51.328;7.322;2022-10-23T07:03:33;98408.50;;;16.09;81.64
21594;BME280;10959;51.328;7.322;2022-10-23T07:06:00;98397.38;;;16.12;81.27
21594;BME280;10959;51.328;7.322;2022-10-23T07:08:27;98402.34;;;16.18;81.42
21594;BME280;10959;51.328;7.322;2022-10-23T07:10:54;98398.63;;;16.19;81.10
21594;BME280;10959;51.328;7.322;2022-10-23T07:13:21;98397.16;;;16.15;81.06
21594;BME280;10959;51.328;7.322;2022-10-23T07:15:49;98397.16;;;16.15;80.95
21594;BME280;10959;51.328;7.322;2022-10-23T07:18:16;98385.16;;;16.17;80.71
21594;BME280;10959;51.328;7.322;2022-10-23T07:20:43;98393.44;;;16.16;80.76
21594;BME280;10959;51.328;7.322;2022-10-23T07:23:11;98394.91;;;16.20;80.63
21594;BME280;10959;51.328;7.322;2022-10-23T07:25:40;98399.63;;;16.18;80.57
21594;BME280;10959;51.328;7.322;2022-10-23T07:28:06;98404.81;;;16.21;80.50
21594;BME280;10959;51.328;7.322;2022-10-23T07:30:33;98396.94;;;16.29;80.21
21594;BME280;10959;51.328;7.322;2022-10-23T07:32:59;98397.41;;;16.34;80.19
21594;BME280;10959;51.328;7.322;2022-10-23T07:35:27;98396.94;;;16.40;80.35
21594;BME280;10959;51.328;7.322;2022-10-23T07:37:53;98396.53;;;16.34;80.14
21594;BME280;10959;51.328;7.322;2022-10-23T07:40:20;98388.53;;;16.32;79.97
21594;BME280;10959;51.328;7.322;2022-10-23T07:42:46;98393.47;;;16.38;80.05
21594;BME280;10959;51.328;7.322;2022-10-23T07:45:12;98389.50;;;16.42;79.88
21594;BME280;10959;51.328;7.322;2022-10-23T07:47:39;98392.09;;;16.44;79.96
21594;BME280;10959;51.328;7.322;2022-10-23T07:50:07;98391.25;;;16.44;80.00
21594;BME280;10959;51.328;7.322;2022-10-23T07:52:35;98392.47;;;16.51;79.64
21594;BME280;10959;51.328;7.322;2022-10-23T07:55:02;98383.94;;;16.55;79.71
21594;BME280;10959;51.328;7.322;2022-10-23T07:57:28;98385.44;;;16.59;79.28
21594;BME280;10959;51.328;7.322;2022-10-23T07:59:54;98386.03;;;16.63;79.51
21594;BME280;10959;51.328;7.322;2022-10-23T08:02:21;98382.97;;;16.68;79.27
21594;BME280;10959;51.328;7.322;2022-10-23T08:04:48;98392.69;;;16.70;78.81
21594;BME280;10959;51.328;7.322;2022-10-23T08:07:14;98385.66;;;16.79;78.74
21594;BME280;10959;51.328;7.322;2022-10-23T08:09:42;98385.28;;;16.95;78.73
21594;BME280;10959;51.328;7.322;2022-10-23T08:12:09;98376.75;;;17.00;78.50
21594;BME280;10959;51.328;7.322;2022-10-23T08:14:35;98369.66;;;17.08;78.38
21594;BME280;10959;51.328;7.322;2022-10-23T08:17:02;98374.81;;;17.23;78.38
21594;BME280;10959;51.328;7.322;2022-10-23T08:19:29;98369.47;;;17.33;78.18
21594;BME280;10959;51.328;7.322;2022-10-23T08:21:55;98364.75;;;17.35;77.15
21594;BME280;10959;51.328;7.322;2022-10-23T08:24:22;98360.56;;;17.52;76.57
21594;BME280;10959;51.328;7.322;2022-10-23T08:26:50;98351.84;;;17.69;75.81
21594;BME280;10959;51.328;7.322;2022-10-23T08:29:16;98349.13;;;17.90;76.07
21594;BME280;10959;51.328;7.322;2022-10-23T08:31:43;98348.66;;;18.06;75.28
21594;BME280;10959;51.328;7.322;2022-10-23T08:34:09;98361.09;;;18.30;74.92
21594;BME280;10959;51.328;7.322;2022-10-23T08:36:36;98360.91;;;18.53;74.75
21594;BME280;10959;51.328;7.322;2022-10-23T08:39:04;98354.09;;;18.68;74.02
21594;BME280;10959;51.328;7.322;2022-10-23T08:41:34;98359.16;;;18.82;73.27
21594;BME280;10959;51.328;7.322;2022-10-23T08:44:07;98352.44;;;18.87;72.45
21594;BME280;10959;51.328;7.322;2022-10-23T08:46:36;98354.47;;;19.04;72.38
21594;BME280;10959;51.328;7.322;2022-10-23T08:49:16;98351.59;;;18.96;71.45
21594;BME280;10959;51.328;7.322;2022-10-23T08:51:48;98347.63;;;19.20;71.56
21594;BME280;10959;51.328;7.322;2022-10-23T08:54:18;98352.50;;;19.36;72.16
21594;BME280;10959;51.328;7.322;2022-10-23T08:56:49;98354.78;;;19.40;71.50
21594;BME280;10959;51.328;7.322;2022-10-23T08:59:24;98351.50;;;19.27;69.10
21594;BME280;10959;51.328;7.322;2022-10-23T09:01:57;98343.59;;;19.43;68.72
21594;BME280;10959;51.328;7.322;2022-10-23T09:04:25;98347.34;;;19.42;68.03
21594;BME280;10959;51.328;7.322;2022-10-23T09:06:58;98342.72;;;19.33;68.41
21594;BME280;10959;51.328;7.322;2022-10-23T09:09:41;98352.22;;;19.19;68.34
21594;BME280;10959;51.328;7.322;2022-10-23T09:12:14;98347.78;;;19.28;68.27
21594;BME280;10959;51.328;7.322;2022-10-23T09:14:58;98332.06;;;19.10;67.96
21594;BME280;10959;51.328;7.322;2022-10-23T09:17:28;98338.16;;;19.33;67.59
21594;BME280;10959;51.328;7.322;2022-10-23T09:20:00;98341.59;;;19.36;67.26
21594;BME280;10959;51.328;7.322;2022-10-23T09:22:30;98346.75;;;19.48;67.85
21594;BME280;10959;51.328;7.322;2022-10-23T09:24:57;98335.25;;;19.55;67.87
21594;BME280;10959;51.328;7.322;2022-10-23T09:27:24;98333.25;;;19.57;66.78
21594;BME280;10959;51.328;7.322;2022-10-23T09:29:54;98341.59;;;19.65;67.20
21594;BME280;10959;51.328;7.322;2022-10-23T09:32:32;98332.66;;;19.63;67.97
21594;BME280;10959;51.328;7.322;2022-10-23T09:34:58;98328.63;;;19.77;65.92
21594;BME280;10959;51.328;7.322;2022-10-23T09:37:26;98321.88;;;19.91;66.13
21594;BME280;10959;51.328;7.322;2022-10-23T09:40:11;98312.81;;;19.80;65.98
21594;BME280;10959;51.328;7.322;2022-10-23T09:42:49;98305.94;;;19.57;64.85
21594;BME280;10959;51.328;7.322;2022-10-23T09:45:35;98305.09;;;19.46;65.73
21594;BME280;10959;51.328;7.322;2022-10-23T09:48:05;98295.09;;;19.75;64.90
21594;BME280;10959;51.328;7.322;2022-10-23T09:50:36;98291.97;;;19.69;65.92
21594;BME280;10959;51.328;7.322;2022-10-23T09:53:02;98290.69;;;19.74;66.11
21594;BME280;10959;51.328;7.322;2022-10-23T09:55:29;98288.66;;;19.66;66.18
21594;BME280;10959;51.328;7.322;2022-10-23T09:57:56;98288.41;;;19.59;65.83
21594;BME280;10959;51.328;7.322;2022-10-23T10:00:24;98283.34;;;19.64;66.20
21594;BME280;10959;51.328;7.322;2022-10-23T10:02:57;98281.22;;;19.48;65.48
21594;BME280;10959;51.328;7.322;2022-10-23T10:05:26;98279.91;;;19.62;65.59
21594;BME280;10959;51.328;7.322;2022-10-23T10:07:55;98275.72;;;19.68;66.37
21594;BME280;10959;51.328;7.322;2022-10-23T10:10:25;98268.81;;;19.83;66.14
21594;BME280;10959;51.328;7.322;2022-10-23T10:12:56;98268.22;;;19.90;65.85
21594;BME280;10959;51.328;7.322;2022-10-23T10:15:27;98255.28;;;19.82;65.82
21594;BME280;10959;51.328;7.322;2022-10-23T10:18:04;98260.44;;;19.95;66.27
21594;BME280;10959;51.328;7.322;2022-10-23T10:20:47;98256.13;;;19.92;65.36
21594;BME280;10959;51.328;7.322;2022-10-23T10:23:24;98257.00;;;19.93;65.34
21594;BME280;10959;51.328;7.322;2022-10-23T10:26:01;98258.13;;;20.00;65.18
21594;BME280;10959;51.328;7.322;2022-10-23T10:28:47;98253.41;;;19.92;65.58
21594;BME280;10959;51.328;7.322;2022-10-23T10:31:19;98257.06;;;20.11;66.00
21594;BME280;10959;51.328;7.322;2022-10-23T10:33:57;98245.19;;;20.02;64.73
21594;BME280;10959;51.328;7.322;2022-10-23T10:36:40;98235.63;;;20.06;65.84
21594;BME280;10959;51.328;7.322;2022-10-23T10:39:11;98232.78;;;20.08;64.46
21594;BME280;10959;51.328;7.322;2022-10-23T10:41:58;98229.25;;;19.88;65.07
21594;BME280;10959;51.328;7.322;2022-10-23T10:44:41;98225.19;;;19.92;64.82
21594;BME280;10959;51.328;7.322;2022-10-23T10:47:14;98216.22;;;20.09;64.28
21594;BME280;10959;51.328;7.322;2022-10-23T10:49:53;98220.47;;;19.94;64.76
21594;BME280;10959;51.328;7.322;2022-10-23T10:52:25;98219.53;;;20.03;65.16
21594;BME280;10959;51.328;7.322;2022-10-23T10:55:02;98219.25;;;20.06;64.03
21594;BME280;10959;51.328;7.322;2022-10-23T10:57:38;98217.22;;;20.08;64.79
21594;BME280;10959;51.328;7.322;2022-10-23T11:00:13;98206.91;;;20.02;64.61
21594;BME280;10959;51.328;7.322;2022-10-23T11:02:44;98205.69;;;20.14;64.80
21594;BME280;10959;51.328;7.322;2022-10-23T11:05:20;98198.47;;;20.13;64.77
21594;BME280;10959;51.328;7.322;2022-10-23T11:07:53;98199.97;;;20.08;64.33
21594;BME280;10959;51.328;7.322;2022-10-23T11:10:20;98202.44;;;20.29;65.33
21594;BME280;10959;51.328;7.322;2022-10-23T11:12:47;98183.41;;;20.37;65.25
21594;BME280;10959;51.328;7.322;2022-10-23T11:15:16;98178.88;;;20.28;64.08
21594;BME280;10959;51.328;7.322;2022-10-23T11:17:47;98167.09;;;20.17;64.08
21594;BME280;10959;51.328;7.322;2022-10-23T11:20:26;98157.47;;;20.13;64.50
21594;BME280;10959;51.328;7.322;2022-10-23T11:23:00;98153.47;;;20.35;64.53
21594;BME280;10959;51.328;7.322;2022-10-23T11:25:45;98156.16;;;20.17;63.61
21594;BME280;10959;51.328;7.322;2022-10-23T11:28:27;98144.00;;;20.30;63.67
21594;BME280;10959;51.328;7.322;2022-10-23T11:31:06;98141.38;;;20.38;63.68
21594;BME280;10959;51.328;7.322;2022-10-23T11:34:15;98138.28;;;20.23;64.49
21594;BME280;10959;51.328;7.322;2022-10-23T11:36:49;98128.78;;;20.45;63.68
21594;BME280;10959;51.328;7.322;2022-10-23T11:39:20;98126.50;;;20.59;63.33
21594;BME280;10959;51.328;7.322;2022-10-23T11:41:50;98117.63;;;20.57;62.74
21594;BME280;10959;51.328;7.322;2022-10-23T11:44:26;98126.97;;;20.36;63.16
21594;BME280;10959;51.328;7.322;2022-10-23T11:47:01;98129.47;;;20.47;63.01
21594;BME280;10959;51.328;7.322;2022-10-23T11:49:27;98133.72;;;20.60;63.50
21594;BME280;10959;51.328;7.322;2022-10-23T11:52:03;98130.44;;;20.38;62.56
21594;BME280;10959;51.328;7.322;2022-10-23T11:54:31;98142.41;;;20.55;63.26
21594;BME280;10959;51.328;7.322;2022-10-23T11:57:09;98145.44;;;20.34;63.21
21594;BME280;10959;51.328;7.322;2022-10-23T11:59:49;98137.69;;;20.47;63.21
21594;BME280;10959;51.328;7.322;2022-10-23T12:02:31;98136.91;;;20.37;64.14
21594;BME280;10959;51.328;7.322;2022-10-23T12:05:02;98123.09;;;20.57;64.24
21594;BME280;10959;51.328;7.322;2022-10-23T12:07:33;98120.19;;;20.40;63.46
21594;BME280;10959;51.328;7.322;2022-10-23T12:10:04;98121.59;;;20.44;64.13
21594;BME280;10959;51.328;7.322;2022-10-23T12:12:32;98125.13;;;20.36;64.16
21594;BME280;10959;51.328;7.322;2022-10-23T12:15:08;98111.31;;;20.10;64.41
21594;BME280;10959;51.328;7.322;2022-10-23T12:17:44;98098.22;;;20.32;65.20
21594;BME280;10959;51.328;7.322;2022-10-23T12:20:29;98088.13;;;20.14;64.95
21594;BME280;10959;51.328;7.322;2022-10-23T12:23:21;98083.16;;;20.28;64.27
21594;BME280;10959;51.328;7.322;2022-10-23T12:26:03;98080.66;;;20.34;63.89
21594;BME280;10959;51.328;7.322;2022-10-23T12:28:36;98071.88;;;20.49;63.77
21594;BME280;10959;51.328;7.322;2022-10-23T12:31:17;98068.72;;;20.53;63.52
21594;BME280;10959;51.328;7.322;2022-10-23T12:33:53;98073.22;;;20.63;63.42
21594;BME280;10959;51.328;7.322;2022-10-23T12:36:30;98077.22;;;20.68;63.15
21594;BME280;10959;51.328;7.322;2022-10-23T12:39:27;98072.13;;;20.55;62.95
21594;BME280;10959;51.328;7.322;2022-10-23T12:41:54;98051.78;;;20.76;63.32
21594;BME280;10959;51.328;7.322;2022-10-23T12:44:22;98049.88;;;20.95;63.76
21594;BME280;10959;51.328;7.322;2022-10-23T12:46:52;98057.41;;;20.93;62.74
21594;BME280;10959;51.328;7.322;2022-10-23T12:49:21;98042.69;;;20.94;62.79
21594;BME280;10959;51.328;7.322;2022-10-23T12:51:53;98042.16;;;20.90;63.46
21594;BME280;10959;51.328;7.322;2022-10-23T12:54:20;98040.97;;;20.93;63.52
21594;BME280;10959;51.328;7.322;2022-10-23T12:56:49;98035.50;;;20.93;63.05
21594;BME280;10959;51.328;7.322;2022-10-23T12:59:20;98023.56;;;21.02;63.86
21594;BME280;10959;51.328;7.322;2022-10-23T13:01:48;98032.50;;;21.04;63.44
21594;BME280;10959;51.328;7.322;2022-10-23T13:04:22;98024.22;;;20.96;63.55
21594;BME280;10959;51.328;7.322;2022-10-23T13:06:51;98033.44;;;20.95;63.22
21594;BME280;10959;51.328;7.322;2022-10-23T13:09:22;98029.03;;;20.94;63.40
21594;BME280;10959;51.328;7.322;2022-10-23T13:11:51;98032.75;;;20.93;63.38
21594;BME280;10959;51.328;7.322;2022-10-23T13:14:39;98035.53;;;20.75;64.61
21594;BME280;10959;51.328;7.322;2022-10-23T13:17:08;98032.09;;;20.91;63.70